Southfield, Michigan
Current Conditions -  °F | °C
As of 1:35 PM on Thursday 30 Oct 2014 (Local Time) from KVLL Reporting Station
Overcast Overcast  
Wind Chill: 50°   Ceiling: 4200
Heat Index: 50°   Visibility: 10mi
Dew Point: 31°   Wind: 6mph
Humidity: 48%   Direction: 290°WNW
Pressure: 30.12"   Gusts: NA
Location:  42.48°N, 83.24°W
Report Text: KVLL 301735Z AUTO 29005KT 10SM OVC042 10/00 A3012 RMK AO2 T01011004
Loading
Personal Weather Stations






























Interactive Weather Map
Tropical Storm Tracking
New forecast layout! Learn more

10-Day Weather Forecast

Advertisements
Track Severe Weather on mobile